createdAt,value
2022-08-23T00:02:29.542Z,18.40
2022-08-23T00:05:08.806Z,18.40
2022-08-23T00:07:46.864Z,18.40
2022-08-23T00:10:17.087Z,18.40
2022-08-23T00:12:45.864Z,18.40
2022-08-23T00:15:16.618Z,18.40
2022-08-23T00:17:43.800Z,18.40
2022-08-23T00:20:13.362Z,18.40
2022-08-23T00:22:42.922Z,18.30
2022-08-23T00:25:11.876Z,18.30
2022-08-23T00:27:39.648Z,18.30
2022-08-23T00:30:09.519Z,18.30
2022-08-23T00:32:38.509Z,18.20
2022-08-23T00:35:09.481Z,18.30
2022-08-23T00:37:39.578Z,18.20
2022-08-23T00:40:12.156Z,18.20
2022-08-23T00:43:12.236Z,18.20
2022-08-23T00:46:45.188Z,18.30
2022-08-23T00:49:14.315Z,18.20
2022-08-23T00:51:52.424Z,18.20
2022-08-23T00:54:23.456Z,18.20
2022-08-23T00:56:51.427Z,18.20
2022-08-23T00:59:18.628Z,18.20
2022-08-23T01:01:48.351Z,18.20
2022-08-23T01:04:17.085Z,18.20
2022-08-23T01:07:07.512Z,18.20
2022-08-23T01:09:41.921Z,18.20
2022-08-23T01:12:15.954Z,18.10
2022-08-23T01:14:55.414Z,18.10
2022-08-23T01:17:29.421Z,18.20
2022-08-23T01:20:09.078Z,18.20
2022-08-23T01:23:10.126Z,18.20
2022-08-23T01:25:38.436Z,18.10
2022-08-23T01:28:05.914Z,18.10
2022-08-23T01:30:36.400Z,18.20
2022-08-23T01:33:06.040Z,18.20
2022-08-23T01:35:43.435Z,18.20
2022-08-23T01:38:11.454Z,18.10
2022-08-23T01:40:39.932Z,18.20
2022-08-23T01:43:07.931Z,18.20
2022-08-23T01:45:35.652Z,18.10
2022-08-23T01:48:06.090Z,18.10
2022-08-23T01:53:05.607Z,18.10
2022-08-23T01:55:33.371Z,18.10
2022-08-23T01:58:02.460Z,18.10
2022-08-23T02:00:39.377Z,18.10
2022-08-23T02:03:07.247Z,18.10
2022-08-23T02:05:35.020Z,18.10
2022-08-23T02:08:21.837Z,18.10
2022-08-23T02:10:48.860Z,18.10
2022-08-23T02:13:16.815Z,18.10
2022-08-23T02:15:51.196Z,18.10
2022-08-23T02:18:20.049Z,18.10
2022-08-23T02:20:52.099Z,18.10
2022-08-23T02:23:20.168Z,18.10
2022-08-23T02:25:47.230Z,18.10
2022-08-23T02:28:14.873Z,18.00
2022-08-23T02:30:41.697Z,18.00
2022-08-23T02:33:08.693Z,18.00
2022-08-23T02:35:35.546Z,18.00
2022-08-23T02:38:07.920Z,18.00
2022-08-23T02:40:35.619Z,18.00
2022-08-23T02:43:03.218Z,18.00
2022-08-23T02:45:30.186Z,18.00
2022-08-23T02:47:57.225Z,17.90
2022-08-23T02:50:27.349Z,17.90
2022-08-23T02:52:55.098Z,17.90
2022-08-23T02:55:22.153Z,17.90
2022-08-23T02:57:51.454Z,17.90
2022-08-23T03:00:19.195Z,17.90
2022-08-23T03:02:46.412Z,17.90
2022-08-23T03:05:14.586Z,17.90
2022-08-23T03:07:41.962Z,17.90
2022-08-23T03:10:10.367Z,17.90
2022-08-23T03:12:41.829Z,17.90
2022-08-23T03:15:09.146Z,17.80
2022-08-23T03:17:36.127Z,17.80
2022-08-23T03:20:04.146Z,17.80
2022-08-23T03:22:30.998Z,17.80
2022-08-23T03:25:00.367Z,17.80
2022-08-23T03:27:31.625Z,17.80
2022-08-23T03:30:09.558Z,17.80
2022-08-23T03:32:49.026Z,17.80
2022-08-23T03:35:16.761Z,17.80
2022-08-23T03:37:43.689Z,17.80
2022-08-23T03:40:11.013Z,17.80
2022-08-23T03:42:37.803Z,17.80
2022-08-23T03:45:05.073Z,17.80
2022-08-23T03:47:31.875Z,17.80
2022-08-23T03:50:01.063Z,17.80
2022-08-23T03:52:27.891Z,17.80
2022-08-23T03:54:54.679Z,17.80
2022-08-23T03:57:21.476Z,17.80
2022-08-23T03:59:48.915Z,17.80
2022-08-23T04:02:16.465Z,17.80
2022-08-23T04:04:43.368Z,17.80
2022-08-23T04:07:10.166Z,17.80
2022-08-23T04:09:37.239Z,17.80
2022-08-23T04:12:04.153Z,17.80
2022-08-23T04:14:39.091Z,17.80
2022-08-23T04:17:06.754Z,17.80
2022-08-23T04:19:33.572Z,17.80
2022-08-23T04:22:01.807Z,17.80
2022-08-23T04:24:31.107Z,17.80
2022-08-23T04:27:00.132Z,17.80
2022-08-23T04:29:33.937Z,17.80
2022-08-23T04:32:05.194Z,17.80
2022-08-23T04:34:36.427Z,17.80
2022-08-23T04:37:09.193Z,17.90
2022-08-23T04:39:57.824Z,17.90
2022-08-23T04:42:25.118Z,17.90
2022-08-23T04:44:54.873Z,17.90
2022-08-23T04:47:21.806Z,17.90
2022-08-23T04:49:48.609Z,17.90
2022-08-23T04:52:19.209Z,17.90
2022-08-23T04:54:46.867Z,17.90
2022-08-23T04:57:15.476Z,17.90
2022-08-23T04:59:43.231Z,18.00
2022-08-23T05:02:10.140Z,18.00
2022-08-23T05:04:36.988Z,18.00
2022-08-23T05:07:04.153Z,18.00
2022-08-23T05:09:31.110Z,18.00
2022-08-23T05:12:00.431Z,18.10
2022-08-23T05:14:27.297Z,18.10
2022-08-23T05:16:54.146Z,18.00
2022-08-23T05:19:21.410Z,18.10
2022-08-23T05:21:48.385Z,18.10
2022-08-23T05:24:15.241Z,18.10
2022-08-23T05:26:42.224Z,18.10
2022-08-23T05:29:11.788Z,18.10
2022-08-23T05:31:38.824Z,18.10
2022-08-23T05:34:05.990Z,18.10
2022-08-23T05:36:33.003Z,18.20
2022-08-23T05:39:02.806Z,18.20
2022-08-23T05:41:37.953Z,18.20
2022-08-23T05:44:08.678Z,18.20
2022-08-23T05:46:38.845Z,18.30
2022-08-23T05:49:08.415Z,18.40
2022-08-23T05:51:35.965Z,18.40
2022-08-23T05:54:08.074Z,18.50
2022-08-23T05:56:39.194Z,18.50
2022-08-23T05:59:12.671Z,18.60
2022-08-23T06:01:40.856Z,18.80
2022-08-23T06:04:12.819Z,18.80
2022-08-23T06:06:45.384Z,18.80
2022-08-23T06:09:15.495Z,18.90
2022-08-23T06:11:44.533Z,19.00
2022-08-23T06:14:12.201Z,19.10
2022-08-23T06:16:44.921Z,19.30
2022-08-23T06:19:12.997Z,19.40
2022-08-23T06:21:40.877Z,19.40
2022-08-23T06:24:10.643Z,19.30
2022-08-23T06:26:41.487Z,19.30
2022-08-23T06:29:17.609Z,19.40
2022-08-23T06:31:47.794Z,19.30
2022-08-23T06:34:33.494Z,19.40
2022-08-23T06:37:12.836Z,19.30
2022-08-23T06:39:39.760Z,19.50
2022-08-23T06:42:37.408Z,19.50
2022-08-23T06:45:02.342Z,19.60
2022-08-23T06:47:29.189Z,19.80
2022-08-23T06:50:00.617Z,19.90
2022-08-23T06:52:29.735Z,20.10
2022-08-23T06:54:57.703Z,20.40
2022-08-23T06:57:25.021Z,20.40
2022-08-23T06:59:51.791Z,20.50
2022-08-23T07:02:21.025Z,20.60
2022-08-23T07:04:53.778Z,20.80
2022-08-23T07:07:20.925Z,20.90
2022-08-23T07:09:48.155Z,21.00
2022-08-23T07:12:19.815Z,21.20
2022-08-23T07:14:49.477Z,21.40
2022-08-23T07:17:18.420Z,21.30
2022-08-23T07:19:47.635Z,21.40
2022-08-23T07:22:17.109Z,21.50
2022-08-23T07:24:46.136Z,21.40
2022-08-23T07:27:13.012Z,21.20
2022-08-23T07:29:40.004Z,21.30
2022-08-23T07:32:07.701Z,21.40
2022-08-23T07:34:36.937Z,21.50
2022-08-23T07:37:04.978Z,21.80
2022-08-23T07:39:38.618Z,21.80
2022-08-23T07:42:23.576Z,22.10
2022-08-23T07:44:52.667Z,22.20
2022-08-23T07:47:20.654Z,22.40
2022-08-23T07:49:50.126Z,22.30
2022-08-23T07:52:17.272Z,22.50
2022-08-23T07:54:48.508Z,22.30
2022-08-23T07:57:16.507Z,22.50
2022-08-23T07:59:43.318Z,22.80
2022-08-23T08:02:10.286Z,22.70
2022-08-23T08:04:37.541Z,22.80
2022-08-23T08:07:18.913Z,22.70
2022-08-23T08:09:47.309Z,22.40
2022-08-23T08:12:14.225Z,22.50
2022-08-23T08:14:42.221Z,22.60
2022-08-23T08:17:09.848Z,22.80
2022-08-23T08:19:38.963Z,22.90
2022-08-23T08:22:05.749Z,23.20
2022-08-23T08:24:32.616Z,23.30
2022-08-23T08:26:59.728Z,23.40
2022-08-23T08:29:29.003Z,23.40
2022-08-23T08:31:56.529Z,23.20
2022-08-23T08:34:23.544Z,23.20
2022-08-23T08:36:58.379Z,23.40
2022-08-23T08:39:31.057Z,23.50
2022-08-23T08:42:24.531Z,23.40
2022-08-23T08:45:15.227Z,23.50
2022-08-23T08:48:06.829Z,23.80
2022-08-23T08:50:41.459Z,23.90
2022-08-23T08:53:19.543Z,24.00
2022-08-23T08:55:51.743Z,24.00
2022-08-23T08:58:36.656Z,24.20
2022-08-23T09:01:03.569Z,24.20
2022-08-23T09:03:34.732Z,24.00
2022-08-23T09:06:04.629Z,24.10
2022-08-23T09:09:11.730Z,23.80
2022-08-23T09:11:38.787Z,23.70
2022-08-23T09:14:11.493Z,23.70
2022-08-23T09:16:54.268Z,23.80
2022-08-23T09:19:25.074Z,24.00
2022-08-23T09:21:59.461Z,23.80
2022-08-23T09:24:27.106Z,23.80
2022-08-23T09:26:56.513Z,23.90
2022-08-23T09:29:25.749Z,24.10
2022-08-23T09:31:58.353Z,23.90
2022-08-23T09:34:37.097Z,24.00
2022-08-23T09:37:16.336Z,24.00
2022-08-23T09:40:04.814Z,24.20
2022-08-23T09:42:40.516Z,24.20
2022-08-23T09:45:35.324Z,24.40
2022-08-23T09:48:03.718Z,24.20
2022-08-23T09:50:45.528Z,24.30
2022-08-23T09:53:23.315Z,24.50
2022-08-23T09:55:57.779Z,24.70
2022-08-23T09:58:42.095Z,24.70
2022-08-23T10:01:13.536Z,24.90
2022-08-23T10:03:42.731Z,25.30
2022-08-23T10:06:12.362Z,25.40
2022-08-23T10:08:56.223Z,25.10
2022-08-23T10:11:52.118Z,25.20
2022-08-23T10:14:23.471Z,25.20
2022-08-23T10:17:13.230Z,25.30
2022-08-23T10:19:58.478Z,25.40
2022-08-23T10:22:28.512Z,25.10
2022-08-23T10:25:33.415Z,25.50
2022-08-23T10:28:35.764Z,25.80
2022-08-23T10:31:27.026Z,25.70
2022-08-23T10:34:22.111Z,25.80
2022-08-23T10:37:09.559Z,26.00
2022-08-23T10:40:03.091Z,25.90
2022-08-23T10:42:57.325Z,26.50
2022-08-23T10:45:35.727Z,26.50
2022-08-23T10:48:05.627Z,26.50
2022-08-23T10:50:43.179Z,26.80
2022-08-23T10:53:17.052Z,26.90
2022-08-23T10:56:05.141Z,26.70
2022-08-23T10:58:51.984Z,27.20
2022-08-23T11:01:26.408Z,27.70
2022-08-23T11:04:07.557Z,28.20
2022-08-23T11:06:38.222Z,28.10
2022-08-23T11:09:25.859Z,28.40
2022-08-23T11:12:02.678Z,28.10
2022-08-23T11:14:32.407Z,28.00
2022-08-23T11:17:03.072Z,28.20
2022-08-23T11:19:52.688Z,28.20
2022-08-23T11:22:24.645Z,28.00
2022-08-23T11:25:04.539Z,28.20
2022-08-23T11:27:43.089Z,27.90
2022-08-23T11:30:35.088Z,28.10
2022-08-23T11:33:23.007Z,28.00
2022-08-23T11:36:18.027Z,28.40
2022-08-23T11:38:47.931Z,28.40
2022-08-23T11:41:20.342Z,28.60
2022-08-23T11:43:48.350Z,28.50
2022-08-23T11:46:27.566Z,28.10
2022-08-23T11:49:13.402Z,27.50
2022-08-23T11:51:59.344Z,27.00
2022-08-23T11:54:50.090Z,26.90
2022-08-23T11:57:35.043Z,27.30
2022-08-23T12:00:29.210Z,27.90
2022-08-23T12:03:34.073Z,28.20
2022-08-23T12:06:12.623Z,28.30
2022-08-23T12:09:04.543Z,29.00
2022-08-23T12:11:58.024Z,29.50
2022-08-23T12:14:33.358Z,29.40
2022-08-23T12:17:01.052Z,29.40
2022-08-23T12:19:48.841Z,29.80
2022-08-23T12:22:22.550Z,29.90
2022-08-23T12:24:59.642Z,29.40
2022-08-23T12:27:35.270Z,28.70
2022-08-23T12:30:20.353Z,28.50
2022-08-23T12:32:58.141Z,28.20
2022-08-23T12:35:34.668Z,28.20
2022-08-23T12:38:38.840Z,29.20
2022-08-23T12:41:25.363Z,30.30
2022-08-23T12:44:17.135Z,36.40
2022-08-23T12:46:47.218Z,34.70
2022-08-23T12:49:56.191Z,32.20
2022-08-23T12:52:31.375Z,32.40
2022-08-23T12:54:58.805Z,38.40
2022-08-23T12:57:36.220Z,34.80
2022-08-23T13:00:17.008Z,32.00
2022-08-23T13:03:12.447Z,30.20
2022-08-23T13:05:52.807Z,29.00
2022-08-23T13:08:42.307Z,28.60
2022-08-23T13:11:11.119Z,28.20
2022-08-23T13:13:41.217Z,27.60
2022-08-23T13:16:31.737Z,27.70
2022-08-23T13:19:23.940Z,38.00
2022-08-23T13:22:19.478Z,46.50
2022-08-23T13:25:24.711Z,51.50
2022-08-23T13:27:45.955Z,51.50
2022-08-23T13:30:19.780Z,52.50
2022-08-23T13:32:50.752Z,55.20
2022-08-23T13:35:43.417Z,56.60
2022-08-23T13:38:19.968Z,56.80
2022-08-23T13:40:59.470Z,58.10
2022-08-23T13:43:46.769Z,58.60
2022-08-23T13:46:24.842Z,52.50
2022-08-23T13:49:00.971Z,50.20
2022-08-23T13:51:36.992Z,52.10
2022-08-23T13:54:07.717Z,52.40
2022-08-23T13:56:40.252Z,52.10
2022-08-23T13:59:37.103Z,46.40
2022-08-23T14:02:08.659Z,46.40
2022-08-23T14:04:36.041Z,44.30
2022-08-23T14:07:03.099Z,38.80
2022-08-23T14:09:30.118Z,35.40
2022-08-23T14:12:00.030Z,34.40
2022-08-23T14:14:31.371Z,34.20
2022-08-23T14:17:02.647Z,35.70
2022-08-23T14:22:19.627Z,36.90
2022-08-23T14:24:46.497Z,34.40
2022-08-23T14:27:15.891Z,32.90
2022-08-23T14:29:42.873Z,31.20
2022-08-23T14:32:09.745Z,30.10
2022-08-23T14:34:37.023Z,29.20
2022-08-23T14:39:51.500Z,28.70
2022-08-23T14:42:26.539Z,28.50
2022-08-23T14:44:53.405Z,28.00
2022-08-23T14:47:20.260Z,27.90
2022-08-23T14:49:49.015Z,28.70
2022-08-23T14:52:19.416Z,29.20
2022-08-23T14:54:46.321Z,29.20
2022-08-23T14:57:13.192Z,29.00
2022-08-23T14:59:40.028Z,29.10
2022-08-23T15:02:12.071Z,29.60
2022-08-23T15:04:40.114Z,29.40
2022-08-23T15:07:18.662Z,28.70
2022-08-23T15:09:51.876Z,28.60
2022-08-23T15:15:12.292Z,27.90
2022-08-23T15:17:48.087Z,27.70
2022-08-23T15:20:15.399Z,27.80
2022-08-23T15:22:45.262Z,27.60
2022-08-23T15:25:23.246Z,27.20
2022-08-23T15:27:51.175Z,26.70
2022-08-23T15:30:18.791Z,26.30
2022-08-23T15:32:52.623Z,26.20
2022-08-23T15:35:28.853Z,26.70
2022-08-23T15:37:57.253Z,27.80
2022-08-23T15:40:25.553Z,27.30
2022-08-23T15:42:53.150Z,26.80
2022-08-23T15:45:22.626Z,26.50
2022-08-23T15:47:52.875Z,26.20
2022-08-23T15:50:24.813Z,26.10
2022-08-23T15:52:52.585Z,25.70
2022-08-23T15:55:20.107Z,25.40
2022-08-23T15:57:53.114Z,25.10
2022-08-23T16:00:24.276Z,25.30
2022-08-23T16:03:18.748Z,25.20
2022-08-23T16:05:47.210Z,25.00
2022-08-23T16:08:30.731Z,25.00
2022-08-23T16:11:02.030Z,24.90
2022-08-23T16:13:28.843Z,24.70
2022-08-23T16:15:55.772Z,25.10
2022-08-23T16:18:22.624Z,25.10
2022-08-23T16:20:49.751Z,25.00
2022-08-23T16:23:26.643Z,24.80
2022-08-23T16:26:01.193Z,24.80
2022-08-23T16:28:28.434Z,25.50
2022-08-23T16:30:55.351Z,25.80
2022-08-23T16:33:24.645Z,26.30
2022-08-23T16:35:53.676Z,26.00
2022-08-23T16:38:20.555Z,25.50
2022-08-23T16:40:47.953Z,25.30
2022-08-23T16:43:14.816Z,25.10
2022-08-23T16:45:41.775Z,24.90
2022-08-23T16:48:11.772Z,24.70
2022-08-23T16:50:41.915Z,24.60
2022-08-23T16:53:13.459Z,24.40
2022-08-23T16:55:40.764Z,24.30
2022-08-23T16:58:07.999Z,24.30
2022-08-23T17:00:36.868Z,24.30
2022-08-23T17:03:08.588Z,24.40
2022-08-23T17:05:35.733Z,24.50
2022-08-23T17:08:05.150Z,24.40
2022-08-23T17:10:34.562Z,24.40
2022-08-23T17:13:02.294Z,24.20
2022-08-23T17:15:34.500Z,24.10
2022-08-23T17:18:01.720Z,24.00
2022-08-23T17:20:33.751Z,23.80
2022-08-23T17:23:05.782Z,23.70
2022-08-23T17:25:33.685Z,23.60
2022-08-23T17:28:01.022Z,23.50
2022-08-23T17:30:28.764Z,23.40
2022-08-23T17:32:56.522Z,23.30
2022-08-23T17:35:33.653Z,23.20
2022-08-23T17:38:02.833Z,23.10
2022-08-23T17:40:33.068Z,23.00
2022-08-23T17:43:00.771Z,23.00
2022-08-23T17:45:28.213Z,22.90
2022-08-23T17:47:55.079Z,22.80
2022-08-23T17:50:22.067Z,22.60
2022-08-23T17:52:51.184Z,22.60
2022-08-23T17:55:19.071Z,22.60
2022-08-23T17:57:50.234Z,22.40
2022-08-23T18:00:18.863Z,22.40
2022-08-23T18:02:45.737Z,22.30
2022-08-23T18:05:12.751Z,22.20
2022-08-23T18:07:40.046Z,22.10
2022-08-23T18:10:07.641Z,22.10
2022-08-23T18:12:34.956Z,21.90
2022-08-23T18:15:04.793Z,21.80
2022-08-23T18:17:32.937Z,21.70
2022-08-23T18:20:03.007Z,21.60
2022-08-23T18:22:29.851Z,21.60
2022-08-23T18:24:58.971Z,21.50
2022-08-23T18:27:46.626Z,21.40
2022-08-23T18:30:16.297Z,21.30
2022-08-23T18:32:43.750Z,21.30
2022-08-23T18:35:13.626Z,21.30
2022-08-23T18:37:40.766Z,21.30
2022-08-23T18:40:10.110Z,21.20
2022-08-23T18:42:37.691Z,21.10
2022-08-23T18:45:05.491Z,21.10
2022-08-23T18:47:32.337Z,21.00
2022-08-23T18:49:59.353Z,21.00
2022-08-23T18:52:30.970Z,21.10
2022-08-23T18:54:58.283Z,21.00
2022-08-23T18:57:25.401Z,20.90
2022-08-23T18:59:54.766Z,20.90
2022-08-23T19:02:24.322Z,20.90
2022-08-23T19:04:53.621Z,20.90
2022-08-23T19:07:20.507Z,20.90
2022-08-23T19:09:47.375Z,20.90
2022-08-23T19:12:16.880Z,20.80
2022-08-23T19:14:46.887Z,20.80
2022-08-23T19:17:14.088Z,20.70
2022-08-23T19:19:43.153Z,20.70
2022-08-23T19:22:14.526Z,20.60
2022-08-23T19:24:41.491Z,20.60
2022-08-23T19:27:09.106Z,20.60
2022-08-23T19:29:38.492Z,20.60
2022-08-23T19:32:05.786Z,20.60
2022-08-23T19:34:32.701Z,20.50
2022-08-23T19:37:01.495Z,20.50
2022-08-23T19:39:30.055Z,20.40
2022-08-23T19:41:57.194Z,20.30
2022-08-23T19:44:24.224Z,20.20
2022-08-23T19:46:51.395Z,20.20
2022-08-23T19:49:18.306Z,20.10
2022-08-23T19:51:45.203Z,19.90
2022-08-23T19:54:14.669Z,19.80
2022-08-23T19:56:51.725Z,19.80
2022-08-23T19:59:35.918Z,19.70
2022-08-23T20:02:06.796Z,19.60
2022-08-23T20:04:34.070Z,19.50
2022-08-23T20:07:03.356Z,19.50
2022-08-23T20:09:33.185Z,19.40
2022-08-23T20:12:00.974Z,19.40
2022-08-23T20:14:32.969Z,19.40
2022-08-23T20:17:04.559Z,19.30
2022-08-23T20:19:31.549Z,19.30
2022-08-23T20:22:18.324Z,19.30
2022-08-23T20:24:52.010Z,19.20
2022-08-23T20:27:25.310Z,19.20
2022-08-23T20:29:58.861Z,19.30
2022-08-23T20:32:26.466Z,19.20
2022-08-23T20:34:53.708Z,19.10
2022-08-23T20:37:21.835Z,19.00
2022-08-23T20:39:48.823Z,19.00
2022-08-23T20:42:20.540Z,19.00
2022-08-23T20:44:47.395Z,19.00
2022-08-23T20:47:14.244Z,19.00
2022-08-23T20:49:41.148Z,18.90
2022-08-23T20:52:08.433Z,18.90
2022-08-23T20:54:37.862Z,18.80
2022-08-23T20:57:04.770Z,18.80
2022-08-23T20:59:31.549Z,18.70
2022-08-23T21:02:00.823Z,18.70
2022-08-23T21:04:30.354Z,18.80
2022-08-23T21:06:58.213Z,18.70
2022-08-23T21:09:28.909Z,18.70
2022-08-23T21:11:56.826Z,18.60
2022-08-23T21:14:24.028Z,18.60
2022-08-23T21:16:51.032Z,18.60
2022-08-23T21:19:18.842Z,18.50
2022-08-23T21:21:47.793Z,18.50
2022-08-23T21:24:18.749Z,18.60
2022-08-23T21:26:45.543Z,18.60
2022-08-23T21:29:12.472Z,18.60
2022-08-23T21:31:42.019Z,18.60
2022-08-23T21:34:11.851Z,18.60
2022-08-23T21:36:38.636Z,18.50
2022-08-23T21:39:08.536Z,18.50
2022-08-23T21:41:42.146Z,18.40
2022-08-23T21:44:13.021Z,18.40
2022-08-23T21:46:40.998Z,18.30
2022-08-23T21:49:08.134Z,18.20
2022-08-23T21:51:35.818Z,18.20
2022-08-23T21:54:03.262Z,18.20
2022-08-23T21:56:30.191Z,18.30
2022-08-23T21:59:02.037Z,18.30
2022-08-23T22:01:36.375Z,18.30
2022-08-23T22:04:06.755Z,18.30
2022-08-23T22:06:36.377Z,18.30
2022-08-23T22:09:05.769Z,18.30
2022-08-23T22:11:34.601Z,18.30
2022-08-23T22:14:01.487Z,18.30
2022-08-23T22:16:28.363Z,18.20
2022-08-23T22:18:55.279Z,18.10
2022-08-23T22:21:22.680Z,18.10
2022-08-23T22:23:50.032Z,18.10
2022-08-23T22:26:16.952Z,17.90
2022-08-23T22:28:45.006Z,17.90
2022-08-23T22:31:13.728Z,17.80
2022-08-23T22:33:45.539Z,17.70
2022-08-23T22:36:16.515Z,17.70
2022-08-23T22:38:44.531Z,17.70
2022-08-23T22:41:15.718Z,17.80
2022-08-23T22:43:45.669Z,17.80
2022-08-23T22:46:13.579Z,17.70
2022-08-23T22:48:40.925Z,17.70
2022-08-23T22:51:07.713Z,17.70
2022-08-23T22:53:40.474Z,17.70
2022-08-23T22:56:10.124Z,17.80
2022-08-23T22:58:37.124Z,17.70
2022-08-23T23:01:09.927Z,17.70
2022-08-23T23:03:42.596Z,17.60
2022-08-23T23:06:09.628Z,17.60
2022-08-23T23:08:36.966Z,17.50
2022-08-23T23:11:08.719Z,17.50
2022-08-23T23:13:40.329Z,17.50
2022-08-23T23:16:13.552Z,17.50
2022-08-23T23:19:03.940Z,17.40
2022-08-23T23:21:52.735Z,17.40
2022-08-23T23:24:33.066Z,17.40
2022-08-23T23:27:00.897Z,17.40
2022-08-23T23:29:27.937Z,17.30
2022-08-23T23:31:55.770Z,17.30
2022-08-23T23:34:23.896Z,17.30
2022-08-23T23:36:55.837Z,17.30
2022-08-23T23:39:23.317Z,17.20
2022-08-23T23:41:50.652Z,17.20
2022-08-23T23:44:22.543Z,17.20
2022-08-23T23:46:57.752Z,17.30
2022-08-23T23:49:29.710Z,17.20
2022-08-23T23:52:07.282Z,17.20
2022-08-23T23:54:35.751Z,17.20
2022-08-23T23:57:06.947Z,17.20
2022-08-23T23:59:34.167Z,17.20
